Dundee, Michigan
Current Conditions -  °F | °C
As of 2:14 AM on Thursday 18 Dec 2014 (Local Time) from KTTF Reporting Station
Overcast Overcast  
Wind Chill: -7°   Ceiling: 2500
Heat Index: -2°   Visibility: 10mi
Dew Point: -6°   Wind: 9mph
Humidity: 74%   Direction: 280°W
Pressure: 30.19"   Gusts: NA
Location:  41.96°N, 83.66°W
Report Text: KTTF 180714Z AUTO 28008KT 10SM BKN025 OVC050 M02/M06 A3019 RMK AO2
Loading
Personal Weather Stations






























Interactive Weather Map New forecast layout! Learn more

10-Day Weather Forecast

Advertisements
Track Severe Weather on mobile